sensor_id;sensor_type;location;lat;lon;timestamp;temperature;humidity
4548;DHT22;2286;51.570;7.090;2022-10-15T00:00:36;13.50;99.90
4548;DHT22;2286;51.570;7.090;2022-10-15T00:03:02;13.50;99.90
4548;DHT22;2286;51.570;7.090;2022-10-15T00:05:30;13.40;99.90
4548;DHT22;2286;51.570;7.090;2022-10-15T00:07:56;13.40;99.90
4548;DHT22;2286;51.570;7.090;2022-10-15T00:10:23;13.40;99.90
4548;DHT22;2286;51.570;7.090;2022-10-15T00:12:51;13.40;99.90
4548;DHT22;2286;51.570;7.090;2022-10-15T00:15:18;13.50;99.90
4548;DHT22;2286;51.570;7.090;2022-10-15T00:17:45;13.50;99.90
4548;DHT22;2286;51.570;7.090;2022-10-15T00:20:12;13.50;99.90
4548;DHT22;2286;51.570;7.090;2022-10-15T00:22:39;13.40;99.90
4548;DHT22;2286;51.570;7.090;2022-10-15T00:25:07;13.40;99.90
4548;DHT22;2286;51.570;7.090;2022-10-15T00:27:35;13.40;99.90
4548;DHT22;2286;51.570;7.090;2022-10-15T00:30:05;13.40;99.90
4548;DHT22;2286;51.570;7.090;2022-10-15T00:32:32;13.40;99.90
4548;DHT22;2286;51.570;7.090;2022-10-15T00:34:59;13.30;99.90
4548;DHT22;2286;51.570;7.090;2022-10-15T00:37:26;13.30;99.90
4548;DHT22;2286;51.570;7.090;2022-10-15T00:39:52;13.30;99.90
4548;DHT22;2286;51.570;7.090;2022-10-15T00:42:19;13.30;99.90
4548;DHT22;2286;51.570;7.090;2022-10-15T00:44:50;13.30;99.90
4548;DHT22;2286;51.570;7.090;2022-10-15T00:47:24;13.30;99.90
4548;DHT22;2286;51.570;7.090;2022-10-15T00:50:00;13.30;99.90
4548;DHT22;2286;51.570;7.090;2022-10-15T00:52:36;13.30;99.90
4548;DHT22;2286;51.570;7.090;2022-10-15T00:55:07;13.30;99.90
4548;DHT22;2286;51.570;7.090;2022-10-15T00:57:35;13.30;99.90
4548;DHT22;2286;51.570;7.090;2022-10-15T01:00:06;13.30;99.90
4548;DHT22;2286;51.570;7.090;2022-10-15T01:02:35;13.40;99.90
4548;DHT22;2286;51.570;7.090;2022-10-15T01:05:03;13.40;99.90
4548;DHT22;2286;51.570;7.090;2022-10-15T01:07:30;13.40;99.90
4548;DHT22;2286;51.570;7.090;2022-10-15T01:09:56;13.30;99.90
4548;DHT22;2286;51.570;7.090;2022-10-15T01:12:37;13.40;99.90
4548;DHT22;2286;51.570;7.090;2022-10-15T01:15:11;13.40;99.90
4548;DHT22;2286;51.570;7.090;2022-10-15T01:17:45;13.40;99.90
4548;DHT22;2286;51.570;7.090;2022-10-15T01:20:33;13.40;99.90
4548;DHT22;2286;51.570;7.090;2022-10-15T01:23:29;13.30;99.90
4548;DHT22;2286;51.570;7.090;2022-10-15T01:26:06;13.30;99.90
4548;DHT22;2286;51.570;7.090;2022-10-15T01:28:44;13.30;99.90
4548;DHT22;2286;51.570;7.090;2022-10-15T01:31:20;13.30;99.90
4548;DHT22;2286;51.570;7.090;2022-10-15T01:33:55;13.30;99.90
4548;DHT22;2286;51.570;7.090;2022-10-15T01:36:31;13.40;99.90
4548;DHT22;2286;51.570;7.090;2022-10-15T01:39:03;13.50;99.90
4548;DHT22;2286;51.570;7.090;2022-10-15T01:41:38;13.50;99.90
4548;DHT22;2286;51.570;7.090;2022-10-15T01:44:10;13.50;99.90
4548;DHT22;2286;51.570;7.090;2022-10-15T01:46:43;13.50;99.90
4548;DHT22;2286;51.570;7.090;2022-10-15T01:49:13;13.50;99.90
4548;DHT22;2286;51.570;7.090;2022-10-15T01:51:42;13.60;99.90
4548;DHT22;2286;51.570;7.090;2022-10-15T01:54:11;13.60;99.90
4548;DHT22;2286;51.570;7.090;2022-10-15T01:56:40;13.60;99.90
4548;DHT22;2286;51.570;7.090;2022-10-15T01:59:14;13.60;99.90
4548;DHT22;2286;51.570;7.090;2022-10-15T02:01:43;13.60;99.90
4548;DHT22;2286;51.570;7.090;2022-10-15T02:04:19;13.60;99.90
4548;DHT22;2286;51.570;7.090;2022-10-15T02:06:51;13.60;99.90
4548;DHT22;2286;51.570;7.090;2022-10-15T02:09:27;13.70;99.90
4548;DHT22;2286;51.570;7.090;2022-10-15T02:12:03;13.60;99.90
4548;DHT22;2286;51.570;7.090;2022-10-15T02:14:35;13.60;99.90
4548;DHT22;2286;51.570;7.090;2022-10-15T02:17:07;13.60;99.90
4548;DHT22;2286;51.570;7.090;2022-10-15T02:19:40;13.60;99.90
4548;DHT22;2286;51.570;7.090;2022-10-15T02:22:13;13.60;99.90
4548;DHT22;2286;51.570;7.090;2022-10-15T02:24:43;13.60;99.90
4548;DHT22;2286;51.570;7.090;2022-10-15T02:27:12;13.60;99.90
4548;DHT22;2286;51.570;7.090;2022-10-15T02:29:41;13.60;99.90
4548;DHT22;2286;51.570;7.090;2022-10-15T02:32:12;13.60;99.90
4548;DHT22;2286;51.570;7.090;2022-10-15T02:34:41;13.50;99.90
4548;DHT22;2286;51.570;7.090;2022-10-15T02:37:08;13.50;99.90
4548;DHT22;2286;51.570;7.090;2022-10-15T02:39:35;13.50;99.90
4548;DHT22;2286;51.570;7.090;2022-10-15T02:42:02;13.50;99.90
4548;DHT22;2286;51.570;7.090;2022-10-15T02:44:29;13.50;99.90
4548;DHT22;2286;51.570;7.090;2022-10-15T02:46:57;13.50;99.90
4548;DHT22;2286;51.570;7.090;2022-10-15T02:49:25;13.50;99.90
4548;DHT22;2286;51.570;7.090;2022-10-15T02:51:52;13.50;99.90
4548;DHT22;2286;51.570;7.090;2022-10-15T02:54:20;13.50;99.90
4548;DHT22;2286;51.570;7.090;2022-10-15T02:56:46;13.50;99.90
4548;DHT22;2286;51.570;7.090;2022-10-15T02:59:13;13.50;99.90
4548;DHT22;2286;51.570;7.090;2022-10-15T03:01:40;13.50;99.90
4548;DHT22;2286;51.570;7.090;2022-10-15T03:04:07;13.50;99.90
4548;DHT22;2286;51.570;7.090;2022-10-15T03:06:35;13.50;99.90
4548;DHT22;2286;51.570;7.090;2022-10-15T03:09:02;13.50;99.90
4548;DHT22;2286;51.570;7.090;2022-10-15T03:11:29;13.40;99.90
4548;DHT22;2286;51.570;7.090;2022-10-15T03:13:56;13.40;99.90
4548;DHT22;2286;51.570;7.090;2022-10-15T03:16:23;13.40;99.90
4548;DHT22;2286;51.570;7.090;2022-10-15T03:18:49;13.40;99.90
4548;DHT22;2286;51.570;7.090;2022-10-15T03:21:16;13.50;99.90
4548;DHT22;2286;51.570;7.090;2022-10-15T03:23:44;13.50;99.90
4548;DHT22;2286;51.570;7.090;2022-10-15T03:26:11;13.50;99.90
4548;DHT22;2286;51.570;7.090;2022-10-15T03:28:38;13.50;99.90
4548;DHT22;2286;51.570;7.090;2022-10-15T03:31:05;13.50;99.90
4548;DHT22;2286;51.570;7.090;2022-10-15T03:33:32;13.50;99.90
4548;DHT22;2286;51.570;7.090;2022-10-15T03:35:58;13.50;99.90
4548;DHT22;2286;51.570;7.090;2022-10-15T03:38:25;13.50;99.90
4548;DHT22;2286;51.570;7.090;2022-10-15T03:40:53;13.50;99.90
4548;DHT22;2286;51.570;7.090;2022-10-15T03:43:22;13.40;99.90
4548;DHT22;2286;51.570;7.090;2022-10-15T03:45:50;13.50;99.90
4548;DHT22;2286;51.570;7.090;2022-10-15T03:48:17;13.50;99.90
4548;DHT22;2286;51.570;7.090;2022-10-15T03:50:44;13.40;99.90
4548;DHT22;2286;51.570;7.090;2022-10-15T03:53:11;13.40;99.90
4548;DHT22;2286;51.570;7.090;2022-10-15T03:55:38;13.40;99.90
4548;DHT22;2286;51.570;7.090;2022-10-15T03:58:06;13.40;99.90
4548;DHT22;2286;51.570;7.090;2022-10-15T04:00:33;13.40;99.90
4548;DHT22;2286;51.570;7.090;2022-10-15T04:03:00;13.40;99.90
4548;DHT22;2286;51.570;7.090;2022-10-15T04:05:27;13.40;99.90
4548;DHT22;2286;51.570;7.090;2022-10-15T04:07:55;13.40;99.90
4548;DHT22;2286;51.570;7.090;2022-10-15T04:10:22;13.30;99.90
4548;DHT22;2286;51.570;7.090;2022-10-15T04:12:48;13.40;99.90
4548;DHT22;2286;51.570;7.090;2022-10-15T04:15:17;13.40;99.90
4548;DHT22;2286;51.570;7.090;2022-10-15T04:17:43;13.30;99.90
4548;DHT22;2286;51.570;7.090;2022-10-15T04:20:10;13.30;99.90
4548;DHT22;2286;51.570;7.090;2022-10-15T04:22:37;13.30;99.90
4548;DHT22;2286;51.570;7.090;2022-10-15T04:25:05;13.30;99.90
4548;DHT22;2286;51.570;7.090;2022-10-15T04:27:32;13.40;99.90
4548;DHT22;2286;51.570;7.090;2022-10-15T04:29:59;13.40;99.90
4548;DHT22;2286;51.570;7.090;2022-10-15T04:32:27;13.40;99.90
4548;DHT22;2286;51.570;7.090;2022-10-15T04:34:53;13.30;99.90
4548;DHT22;2286;51.570;7.090;2022-10-15T04:37:20;13.30;99.90
4548;DHT22;2286;51.570;7.090;2022-10-15T04:39:47;13.20;99.90
4548;DHT22;2286;51.570;7.090;2022-10-15T04:42:14;13.20;99.90
4548;DHT22;2286;51.570;7.090;2022-10-15T04:44:41;13.20;99.90
4548;DHT22;2286;51.570;7.090;2022-10-15T04:47:08;13.20;99.90
4548;DHT22;2286;51.570;7.090;2022-10-15T04:49:36;13.20;99.90
4548;DHT22;2286;51.570;7.090;2022-10-15T04:52:03;13.10;99.90
4548;DHT22;2286;51.570;7.090;2022-10-15T04:54:30;13.10;99.90
4548;DHT22;2286;51.570;7.090;2022-10-15T04:56:57;13.10;99.90
4548;DHT22;2286;51.570;7.090;2022-10-15T04:59:23;13.10;99.90
4548;DHT22;2286;51.570;7.090;2022-10-15T05:01:50;13.10;99.90
4548;DHT22;2286;51.570;7.090;2022-10-15T05:04:17;13.00;99.90
4548;DHT22;2286;51.570;7.090;2022-10-15T05:06:45;13.00;99.90
4548;DHT22;2286;51.570;7.090;2022-10-15T05:09:12;13.00;99.90
4548;DHT22;2286;51.570;7.090;2022-10-15T05:11:39;13.00;99.90
4548;DHT22;2286;51.570;7.090;2022-10-15T05:14:06;13.00;99.90
4548;DHT22;2286;51.570;7.090;2022-10-15T05:16:33;12.90;99.90
4548;DHT22;2286;51.570;7.090;2022-10-15T05:19:01;13.00;99.90
4548;DHT22;2286;51.570;7.090;2022-10-15T05:21:29;13.00;99.90
4548;DHT22;2286;51.570;7.090;2022-10-15T05:23:57;12.90;99.90
4548;DHT22;2286;51.570;7.090;2022-10-15T05:26:25;13.00;99.90
4548;DHT22;2286;51.570;7.090;2022-10-15T05:28:54;13.00;99.90
4548;DHT22;2286;51.570;7.090;2022-10-15T05:31:22;12.90;99.90
4548;DHT22;2286;51.570;7.090;2022-10-15T05:33:50;12.90;99.90
4548;DHT22;2286;51.570;7.090;2022-10-15T05:36:19;12.90;99.90
4548;DHT22;2286;51.570;7.090;2022-10-15T05:38:47;13.00;99.90
4548;DHT22;2286;51.570;7.090;2022-10-15T05:41:15;12.90;99.90
4548;DHT22;2286;51.570;7.090;2022-10-15T05:43:45;12.90;99.90
4548;DHT22;2286;51.570;7.090;2022-10-15T05:46:12;12.90;99.90
4548;DHT22;2286;51.570;7.090;2022-10-15T05:48:39;12.90;99.90
4548;DHT22;2286;51.570;7.090;2022-10-15T05:51:07;12.80;99.90
4548;DHT22;2286;51.570;7.090;2022-10-15T05:53:34;12.80;99.90
4548;DHT22;2286;51.570;7.090;2022-10-15T05:56:01;12.80;99.90
4548;DHT22;2286;51.570;7.090;2022-10-15T05:58:31;12.80;99.90
4548;DHT22;2286;51.570;7.090;2022-10-15T06:01:00;12.80;99.90
4548;DHT22;2286;51.570;7.090;2022-10-15T06:03:28;12.80;99.90
4548;DHT22;2286;51.570;7.090;2022-10-15T06:05:54;12.70;99.90
4548;DHT22;2286;51.570;7.090;2022-10-15T06:08:21;12.70;99.90
4548;DHT22;2286;51.570;7.090;2022-10-15T06:10:48;12.70;99.90
4548;DHT22;2286;51.570;7.090;2022-10-15T06:13:16;12.70;99.90
4548;DHT22;2286;51.570;7.090;2022-10-15T06:15:45;12.70;99.90
4548;DHT22;2286;51.570;7.090;2022-10-15T06:18:12;12.70;99.90
4548;DHT22;2286;51.570;7.090;2022-10-15T06:20:41;12.70;99.90
4548;DHT22;2286;51.570;7.090;2022-10-15T06:23:08;12.70;99.90
4548;DHT22;2286;51.570;7.090;2022-10-15T06:25:36;12.70;99.90
4548;DHT22;2286;51.570;7.090;2022-10-15T06:28:05;12.70;99.90
4548;DHT22;2286;51.570;7.090;2022-10-15T06:30:32;12.60;99.90
4548;DHT22;2286;51.570;7.090;2022-10-15T06:33:00;12.60;99.90
4548;DHT22;2286;51.570;7.090;2022-10-15T06:35:27;12.60;99.90
4548;DHT22;2286;51.570;7.090;2022-10-15T06:37:55;12.70;99.90
4548;DHT22;2286;51.570;7.090;2022-10-15T06:40:22;12.70;99.90
4548;DHT22;2286;51.570;7.090;2022-10-15T06:42:48;12.70;99.90
4548;DHT22;2286;51.570;7.090;2022-10-15T06:45:15;12.70;99.90
4548;DHT22;2286;51.570;7.090;2022-10-15T06:47:42;12.70;99.90
4548;DHT22;2286;51.570;7.090;2022-10-15T06:50:10;12.80;99.90
4548;DHT22;2286;51.570;7.090;2022-10-15T06:52:37;12.90;99.90
4548;DHT22;2286;51.570;7.090;2022-10-15T06:55:05;13.00;99.90
4548;DHT22;2286;51.570;7.090;2022-10-15T06:57:32;13.10;99.90
4548;DHT22;2286;51.570;7.090;2022-10-15T06:59:59;13.10;99.90
4548;DHT22;2286;51.570;7.090;2022-10-15T07:02:25;13.20;99.90
4548;DHT22;2286;51.570;7.090;2022-10-15T07:04:52;13.30;99.90
4548;DHT22;2286;51.570;7.090;2022-10-15T07:07:20;13.30;99.90
4548;DHT22;2286;51.570;7.090;2022-10-15T07:09:47;13.40;99.90
4548;DHT22;2286;51.570;7.090;2022-10-15T07:12:17;13.40;99.90
4548;DHT22;2286;51.570;7.090;2022-10-15T07:14:46;13.50;99.90
4548;DHT22;2286;51.570;7.090;2022-10-15T07:17:13;13.60;99.90
4548;DHT22;2286;51.570;7.090;2022-10-15T07:19:40;13.60;99.90
4548;DHT22;2286;51.570;7.090;2022-10-15T07:22:08;13.70;99.90
4548;DHT22;2286;51.570;7.090;2022-10-15T07:24:36;13.80;99.90
4548;DHT22;2286;51.570;7.090;2022-10-15T07:27:03;13.80;99.90
4548;DHT22;2286;51.570;7.090;2022-10-15T07:29:30;13.90;99.90
4548;DHT22;2286;51.570;7.090;2022-10-15T07:31:56;14.10;99.90
4548;DHT22;2286;51.570;7.090;2022-10-15T07:34:24;14.10;99.90
4548;DHT22;2286;51.570;7.090;2022-10-15T07:36:51;14.20;99.90
4548;DHT22;2286;51.570;7.090;2022-10-15T07:39:17;14.40;99.90
4548;DHT22;2286;51.570;7.090;2022-10-15T07:41:45;14.50;99.90
4548;DHT22;2286;51.570;7.090;2022-10-15T07:44:12;14.60;99.90
4548;DHT22;2286;51.570;7.090;2022-10-15T07:46:39;14.70;99.90
4548;DHT22;2286;51.570;7.090;2022-10-15T07:49:06;14.70;99.90
4548;DHT22;2286;51.570;7.090;2022-10-15T07:51:34;14.70;99.90
4548;DHT22;2286;51.570;7.090;2022-10-15T07:54:00;14.60;99.90
4548;DHT22;2286;51.570;7.090;2022-10-15T07:56:28;14.80;99.90
4548;DHT22;2286;51.570;7.090;2022-10-15T07:58:57;14.90;99.90
4548;DHT22;2286;51.570;7.090;2022-10-15T08:01:23;15.00;99.90
4548;DHT22;2286;51.570;7.090;2022-10-15T08:03:50;15.00;99.90
4548;DHT22;2286;51.570;7.090;2022-10-15T08:06:17;15.00;99.90
4548;DHT22;2286;51.570;7.090;2022-10-15T08:08:44;15.20;99.90
4548;DHT22;2286;51.570;7.090;2022-10-15T08:11:13;15.20;99.90
4548;DHT22;2286;51.570;7.090;2022-10-15T08:13:41;15.20;99.90
4548;DHT22;2286;51.570;7.090;2022-10-15T08:16:11;15.10;99.90
4548;DHT22;2286;51.570;7.090;2022-10-15T08:18:38;15.10;99.90
4548;DHT22;2286;51.570;7.090;2022-10-15T08:21:06;15.10;99.90
4548;DHT22;2286;51.570;7.090;2022-10-15T08:23:33;15.10;99.90
4548;DHT22;2286;51.570;7.090;2022-10-15T08:26:00;15.20;99.90
4548;DHT22;2286;51.570;7.090;2022-10-15T08:28:27;15.30;99.90
4548;DHT22;2286;51.570;7.090;2022-10-15T08:30:56;15.40;99.90
4548;DHT22;2286;51.570;7.090;2022-10-15T08:33:24;15.60;99.90
4548;DHT22;2286;51.570;7.090;2022-10-15T08:35:51;15.60;99.90
4548;DHT22;2286;51.570;7.090;2022-10-15T08:38:18;15.60;99.90
4548;DHT22;2286;51.570;7.090;2022-10-15T08:40:47;15.70;99.90
4548;DHT22;2286;51.570;7.090;2022-10-15T08:43:19;15.80;99.90
4548;DHT22;2286;51.570;7.090;2022-10-15T08:45:49;15.90;13.40
4548;DHT22;2286;51.570;7.090;2022-10-15T08:48:21;16.00;99.90
4548;DHT22;2286;51.570;7.090;2022-10-15T08:50:58;16.10;1.00
4548;DHT22;2286;51.570;7.090;2022-10-15T08:53:26;16.40;99.90
4548;DHT22;2286;51.570;7.090;2022-10-15T08:55:55;16.60;1.00
4548;DHT22;2286;51.570;7.090;2022-10-15T08:58:28;16.60;99.90
4548;DHT22;2286;51.570;7.090;2022-10-15T09:01:03;16.70;1.00
4548;DHT22;2286;51.570;7.090;2022-10-15T09:03:53;16.90;1.00
4548;DHT22;2286;51.570;7.090;2022-10-15T09:06:24;17.20;17.90
4548;DHT22;2286;51.570;7.090;2022-10-15T09:08:58;17.30;99.90
4548;DHT22;2286;51.570;7.090;2022-10-15T09:11:36;17.40;99.90
4548;DHT22;2286;51.570;7.090;2022-10-15T09:14:10;17.50;1.00
4548;DHT22;2286;51.570;7.090;2022-10-15T09:16:40;17.70;99.90
4548;DHT22;2286;51.570;7.090;2022-10-15T09:19:13;17.80;99.90
4548;DHT22;2286;51.570;7.090;2022-10-15T09:21:43;18.00;99.90
4548;DHT22;2286;51.570;7.090;2022-10-15T09:24:14;18.00;22.50
4548;DHT22;2286;51.570;7.090;2022-10-15T09:26:50;17.90;1.00
4548;DHT22;2286;51.570;7.090;2022-10-15T09:29:24;18.00;99.90
4548;DHT22;2286;51.570;7.090;2022-10-15T09:31:57;18.00;1.00
4548;DHT22;2286;51.570;7.090;2022-10-15T09:34:33;18.10;99.90
4548;DHT22;2286;51.570;7.090;2022-10-15T09:37:07;18.20;1.00
4548;DHT22;2286;51.570;7.090;2022-10-15T09:39:48;18.30;1.00
4548;DHT22;2286;51.570;7.090;2022-10-15T09:42:26;18.50;99.90
4548;DHT22;2286;51.570;7.090;2022-10-15T09:44:56;18.90;99.90
4548;DHT22;2286;51.570;7.090;2022-10-15T09:47:26;19.80;1.00
4548;DHT22;2286;51.570;7.090;2022-10-15T09:49:54;20.40;1.00
4548;DHT22;2286;51.570;7.090;2022-10-15T09:52:29;21.00;1.00
4548;DHT22;2286;51.570;7.090;2022-10-15T09:55:08;20.80;1.00
4548;DHT22;2286;51.570;7.090;2022-10-15T09:57:37;20.70;1.00
4548;DHT22;2286;51.570;7.090;2022-10-15T10:00:08;20.70;1.00
4548;DHT22;2286;51.570;7.090;2022-10-15T10:02:36;21.20;1.00
4548;DHT22;2286;51.570;7.090;2022-10-15T10:05:18;22.00;99.90
4548;DHT22;2286;51.570;7.090;2022-10-15T10:07:47;22.10;99.90
4548;DHT22;2286;51.570;7.090;2022-10-15T10:10:23;21.90;99.90
4548;DHT22;2286;51.570;7.090;2022-10-15T10:12:51;21.40;99.90
4548;DHT22;2286;51.570;7.090;2022-10-15T10:15:29;20.90;1.00
4548;DHT22;2286;51.570;7.090;2022-10-15T10:17:57;20.50;1.00
4548;DHT22;2286;51.570;7.090;2022-10-15T10:20:28;20.10;99.90
4548;DHT22;2286;51.570;7.090;2022-10-15T10:22:58;19.90;68.90
4548;DHT22;2286;51.570;7.090;2022-10-15T10:25:32;19.50;99.90
4548;DHT22;2286;51.570;7.090;2022-10-15T10:28:12;19.30;99.90
4548;DHT22;2286;51.570;7.090;2022-10-15T10:30:47;19.00;1.00
4548;DHT22;2286;51.570;7.090;2022-10-15T10:33:23;18.90;1.00
4548;DHT22;2286;51.570;7.090;2022-10-15T10:35:51;18.70;1.00
4548;DHT22;2286;51.570;7.090;2022-10-15T10:38:21;18.80;1.00
4548;DHT22;2286;51.570;7.090;2022-10-15T10:40:53;19.00;1.00
4548;DHT22;2286;51.570;7.090;2022-10-15T10:43:24;18.80;1.00
4548;DHT22;2286;51.570;7.090;2022-10-15T10:45:56;18.70;99.90
4548;DHT22;2286;51.570;7.090;2022-10-15T10:48:25;18.70;99.90
4548;DHT22;2286;51.570;7.090;2022-10-15T10:51:04;18.70;99.90
4548;DHT22;2286;51.570;7.090;2022-10-15T10:53:33;18.60;99.90
4548;DHT22;2286;51.570;7.090;2022-10-15T10:56:03;18.50;1.00
4548;DHT22;2286;51.570;7.090;2022-10-15T10:58:33;18.40;1.00
4548;DHT22;2286;51.570;7.090;2022-10-15T11:01:00;18.30;30.50
4548;DHT22;2286;51.570;7.090;2022-10-15T11:03:33;18.00;1.00
4548;DHT22;2286;51.570;7.090;2022-10-15T11:06:15;17.80;99.90
4548;DHT22;2286;51.570;7.090;2022-10-15T11:08:58;17.60;93.10
4548;DHT22;2286;51.570;7.090;2022-10-15T11:11:31;17.50;99.90
4548;DHT22;2286;51.570;7.090;2022-10-15T11:14:07;17.30;1.00
4548;DHT22;2286;51.570;7.090;2022-10-15T11:16:46;17.20;99.90
4548;DHT22;2286;51.570;7.090;2022-10-15T11:19:24;17.00;99.90
4548;DHT22;2286;51.570;7.090;2022-10-15T11:22:02;17.00;1.00
4548;DHT22;2286;51.570;7.090;2022-10-15T11:24:41;17.00;1.00
4548;DHT22;2286;51.570;7.090;2022-10-15T11:27:19;17.00;1.00
4548;DHT22;2286;51.570;7.090;2022-10-15T11:29:54;17.10;1.00
4548;DHT22;2286;51.570;7.090;2022-10-15T11:32:31;17.20;1.00
4548;DHT22;2286;51.570;7.090;2022-10-15T11:35:22;17.40;1.00
4548;DHT22;2286;51.570;7.090;2022-10-15T11:38:02;17.40;1.00
4548;DHT22;2286;51.570;7.090;2022-10-15T11:40:42;17.40;1.00
4548;DHT22;2286;51.570;7.090;2022-10-15T11:43:17;17.20;1.00
4548;DHT22;2286;51.570;7.090;2022-10-15T11:45:57;17.20;1.00
4548;DHT22;2286;51.570;7.090;2022-10-15T11:48:37;17.30;1.00
4548;DHT22;2286;51.570;7.090;2022-10-15T11:51:15;17.40;1.00
4548;DHT22;2286;51.570;7.090;2022-10-15T11:53:59;17.50;1.00
4548;DHT22;2286;51.570;7.090;2022-10-15T11:56:33;17.60;1.00
4548;DHT22;2286;51.570;7.090;2022-10-15T11:59:04;17.70;99.90
4548;DHT22;2286;51.570;7.090;2022-10-15T12:01:38;17.70;99.90
4548;DHT22;2286;51.570;7.090;2022-10-15T12:04:11;17.50;99.90
4548;DHT22;2286;51.570;7.090;2022-10-15T12:06:42;17.60;1.00
4548;DHT22;2286;51.570;7.090;2022-10-15T12:09:14;17.60;99.90
4548;DHT22;2286;51.570;7.090;2022-10-15T12:11:47;17.70;1.00
4548;DHT22;2286;51.570;7.090;2022-10-15T12:14:19;17.80;1.00
4548;DHT22;2286;51.570;7.090;2022-10-15T12:16:56;17.90;1.00
4548;DHT22;2286;51.570;7.090;2022-10-15T12:19:26;17.90;1.00
4548;DHT22;2286;51.570;7.090;2022-10-15T12:22:02;17.80;1.00
4548;DHT22;2286;51.570;7.090;2022-10-15T12:24:51;17.70;99.90
4548;DHT22;2286;51.570;7.090;2022-10-15T12:27:28;17.70;99.90
4548;DHT22;2286;51.570;7.090;2022-10-15T12:30:21;17.70;1.00
4548;DHT22;2286;51.570;7.090;2022-10-15T12:32:49;17.70;27.30
4548;DHT22;2286;51.570;7.090;2022-10-15T12:35:24;17.60;93.70
4548;DHT22;2286;51.570;7.090;2022-10-15T12:37:54;17.60;27.40
4548;DHT22;2286;51.570;7.090;2022-10-15T12:40:27;17.50;99.90
4548;DHT22;2286;51.570;7.090;2022-10-15T12:42:57;17.40;99.90
4548;DHT22;2286;51.570;7.090;2022-10-15T12:45:32;17.30;99.90
4548;DHT22;2286;51.570;7.090;2022-10-15T12:48:20;17.30;99.90
4548;DHT22;2286;51.570;7.090;2022-10-15T12:50:47;17.50;99.90
4548;DHT22;2286;51.570;7.090;2022-10-15T12:53:30;17.50;99.90
4548;DHT22;2286;51.570;7.090;2022-10-15T12:56:21;17.60;99.90
4548;DHT22;2286;51.570;7.090;2022-10-15T12:58:50;17.80;99.90
4548;DHT22;2286;51.570;7.090;2022-10-15T13:01:28;18.20;99.90
4548;DHT22;2286;51.570;7.090;2022-10-15T13:03:57;18.60;71.20
4548;DHT22;2286;51.570;7.090;2022-10-15T13:06:34;18.60;99.90
4548;DHT22;2286;51.570;7.090;2022-10-15T13:09:20;18.50;1.00
4548;DHT22;2286;51.570;7.090;2022-10-15T13:11:51;18.50;99.90
4548;DHT22;2286;51.570;7.090;2022-10-15T13:14:27;18.30;1.00
4548;DHT22;2286;51.570;7.090;2022-10-15T13:16:54;18.40;1.00
4548;DHT22;2286;51.570;7.090;2022-10-15T13:19:24;18.40;1.00
4548;DHT22;2286;51.570;7.090;2022-10-15T13:21:53;18.40;99.90
4548;DHT22;2286;51.570;7.090;2022-10-15T13:24:23;18.40;1.00
4548;DHT22;2286;51.570;7.090;2022-10-15T13:26:51;18.50;1.00
4548;DHT22;2286;51.570;7.090;2022-10-15T13:29:21;18.60;99.90
4548;DHT22;2286;51.570;7.090;2022-10-15T13:31:49;18.70;1.00
4548;DHT22;2286;51.570;7.090;2022-10-15T13:34:24;18.70;99.90
4548;DHT22;2286;51.570;7.090;2022-10-15T13:36:53;18.80;78.90
4548;DHT22;2286;51.570;7.090;2022-10-15T13:39:26;18.80;99.90
4548;DHT22;2286;51.570;7.090;2022-10-15T13:42:05;18.90;1.00
4548;DHT22;2286;51.570;7.090;2022-10-15T13:44:34;19.10;1.00
4548;DHT22;2286;51.570;7.090;2022-10-15T13:47:01;19.40;99.90
4548;DHT22;2286;51.570;7.090;2022-10-15T13:49:28;19.80;1.00
4548;DHT22;2286;51.570;7.090;2022-10-15T13:51:54;20.30;1.00
4548;DHT22;2286;51.570;7.090;2022-10-15T13:54:23;21.20;1.00
4548;DHT22;2286;51.570;7.090;2022-10-15T13:56:52;22.50;1.00
4548;DHT22;2286;51.570;7.090;2022-10-15T13:59:21;23.20;1.00
4548;DHT22;2286;51.570;7.090;2022-10-15T14:01:52;23.30;1.00
4548;DHT22;2286;51.570;7.090;2022-10-15T14:04:25;23.90;1.00
4548;DHT22;2286;51.570;7.090;2022-10-15T14:06:55;23.60;1.00
4548;DHT22;2286;51.570;7.090;2022-10-15T14:09:29;23.50;1.00
4548;DHT22;2286;51.570;7.090;2022-10-15T14:11:57;22.70;1.00
4548;DHT22;2286;51.570;7.090;2022-10-15T14:14:28;22.20;99.90
4548;DHT22;2286;51.570;7.090;2022-10-15T14:16:58;21.70;1.00
4548;DHT22;2286;51.570;7.090;2022-10-15T14:19:26;21.30;99.90
4548;DHT22;2286;51.570;7.090;2022-10-15T14:21:55;20.70;1.00
4548;DHT22;2286;51.570;7.090;2022-10-15T14:24:27;20.50;99.90
4548;DHT22;2286;51.570;7.090;2022-10-15T14:27:01;20.30;1.00
4548;DHT22;2286;51.570;7.090;2022-10-15T14:29:37;20.00;99.90
4548;DHT22;2286;51.570;7.090;2022-10-15T14:32:23;19.80;1.00
4548;DHT22;2286;51.570;7.090;2022-10-15T14:34:51;19.60;99.90
4548;DHT22;2286;51.570;7.090;2022-10-15T14:37:39;19.50;1.00
4548;DHT22;2286;51.570;7.090;2022-10-15T14:40:13;19.30;1.00
4548;DHT22;2286;51.570;7.090;2022-10-15T14:42:43;19.10;99.90
4548;DHT22;2286;51.570;7.090;2022-10-15T14:45:11;18.70;99.90
4548;DHT22;2286;51.570;7.090;2022-10-15T14:47:40;18.30;1.00
4548;DHT22;2286;51.570;7.090;2022-10-15T14:50:10;17.90;99.90
4548;DHT22;2286;51.570;7.090;2022-10-15T14:52:42;17.60;99.90
4548;DHT22;2286;51.570;7.090;2022-10-15T14:55:26;17.40;99.90
4548;DHT22;2286;51.570;7.090;2022-10-15T14:57:54;17.40;99.90
4548;DHT22;2286;51.570;7.090;2022-10-15T15:00:24;17.30;99.90
4548;DHT22;2286;51.570;7.090;2022-10-15T15:02:54;17.20;99.90
4548;DHT22;2286;51.570;7.090;2022-10-15T15:05:23;17.20;99.90
4548;DHT22;2286;51.570;7.090;2022-10-15T15:07:50;17.20;99.90
4548;DHT22;2286;51.570;7.090;2022-10-15T15:10:17;17.20;99.90
4548;DHT22;2286;51.570;7.090;2022-10-15T15:12:48;17.00;99.90
4548;DHT22;2286;51.570;7.090;2022-10-15T15:15:17;17.00;99.90
4548;DHT22;2286;51.570;7.090;2022-10-15T15:17:45;17.00;99.90
4548;DHT22;2286;51.570;7.090;2022-10-15T15:20:15;17.00;99.90
4548;DHT22;2286;51.570;7.090;2022-10-15T15:22:45;17.00;99.90
4548;DHT22;2286;51.570;7.090;2022-10-15T15:25:16;17.00;99.90
4548;DHT22;2286;51.570;7.090;2022-10-15T15:27:43;17.00;99.90
4548;DHT22;2286;51.570;7.090;2022-10-15T15:30:15;17.00;99.90
4548;DHT22;2286;51.570;7.090;2022-10-15T15:32:42;17.00;99.90
4548;DHT22;2286;51.570;7.090;2022-10-15T15:35:17;17.00;99.90
4548;DHT22;2286;51.570;7.090;2022-10-15T15:37:45;17.00;99.90
4548;DHT22;2286;51.570;7.090;2022-10-15T15:40:12;17.00;99.90
4548;DHT22;2286;51.570;7.090;2022-10-15T15:42:39;17.00;99.90
4548;DHT22;2286;51.570;7.090;2022-10-15T15:45:16;17.00;99.90
4548;DHT22;2286;51.570;7.090;2022-10-15T15:47:43;17.10;99.90
4548;DHT22;2286;51.570;7.090;2022-10-15T15:50:10;17.20;99.90
4548;DHT22;2286;51.570;7.090;2022-10-15T15:52:38;17.10;99.90
4548;DHT22;2286;51.570;7.090;2022-10-15T15:55:06;17.10;99.90
4548;DHT22;2286;51.570;7.090;2022-10-15T15:57:33;17.00;99.90
4548;DHT22;2286;51.570;7.090;2022-10-15T16:00:00;17.00;99.90
4548;DHT22;2286;51.570;7.090;2022-10-15T16:02:27;16.90;99.90
4548;DHT22;2286;51.570;7.090;2022-10-15T16:04:53;16.90;99.90
4548;DHT22;2286;51.570;7.090;2022-10-15T16:07:20;16.80;99.90
4548;DHT22;2286;51.570;7.090;2022-10-15T16:09:48;16.80;99.90
4548;DHT22;2286;51.570;7.090;2022-10-15T16:12:15;16.70;99.90
4548;DHT22;2286;51.570;7.090;2022-10-15T16:14:42;16.60;99.90
4548;DHT22;2286;51.570;7.090;2022-10-15T16:17:08;16.60;99.90
4548;DHT22;2286;51.570;7.090;2022-10-15T16:19:35;16.60;99.90
4548;DHT22;2286;51.570;7.090;2022-10-15T16:22:02;16.50;99.90
4548;DHT22;2286;51.570;7.090;2022-10-15T16:24:29;16.50;99.90